sensor_id;sensor_type;location;lat;lon;timestamp;P1;durP1;ratioP1;P2;durP2;ratioP2
11439;SDS011;5776;51.814;4.510;2024-01-06T00:02:24;7.93;;;4.40;;
11439;SDS011;5776;51.814;4.510;2024-01-06T00:04:50;4.87;;;3.77;;
11439;SDS011;5776;51.814;4.510;2024-01-06T00:07:17;7.23;;;3.93;;
11439;SDS011;5776;51.814;4.510;2024-01-06T00:09:43;5.83;;;3.63;;
11439;SDS011;5776;51.814;4.510;2024-01-06T00:12:11;7.03;;;3.53;;
11439;SDS011;5776;51.814;4.510;2024-01-06T00:14:37;6.23;;;4.10;;
11439;SDS011;5776;51.814;4.510;2024-01-06T00:17:03;6.50;;;4.40;;
11439;SDS011;5776;51.814;4.510;2024-01-06T00:19:29;7.73;;;4.77;;
11439;SDS011;5776;51.814;4.510;2024-01-06T00:21:54;6.70;;;4.57;;
11439;SDS011;5776;51.814;4.510;2024-01-06T00:24:21;6.33;;;4.23;;
11439;SDS011;5776;51.814;4.510;2024-01-06T00:26:48;6.80;;;4.33;;
11439;SDS011;5776;51.814;4.510;2024-01-06T00:29:13;7.03;;;4.73;;
11439;SDS011;5776;51.814;4.510;2024-01-06T00:31:39;5.50;;;4.30;;
11439;SDS011;5776;51.814;4.510;2024-01-06T00:34:05;5.93;;;4.30;;
11439;SDS011;5776;51.814;4.510;2024-01-06T00:36:31;6.00;;;4.20;;
11439;SDS011;5776;51.814;4.510;2024-01-06T00:38:57;6.03;;;4.23;;
11439;SDS011;5776;51.814;4.510;2024-01-06T00:41:22;7.20;;;4.87;;
11439;SDS011;5776;51.814;4.510;2024-01-06T00:43:48;6.63;;;4.67;;
11439;SDS011;5776;51.814;4.510;2024-01-06T00:46:15;7.90;;;4.27;;
11439;SDS011;5776;51.814;4.510;2024-01-06T00:48:41;10.73;;;4.07;;
11439;SDS011;5776;51.814;4.510;2024-01-06T00:51:07;5.00;;;3.80;;
11439;SDS011;5776;51.814;4.510;2024-01-06T00:53:33;5.23;;;3.60;;
11439;SDS011;5776;51.814;4.510;2024-01-06T00:55:59;5.50;;;3.20;;
11439;SDS011;5776;51.814;4.510;2024-01-06T00:58:25;5.73;;;2.70;;
11439;SDS011;5776;51.814;4.510;2024-01-06T01:00:51;3.97;;;2.57;;
11439;SDS011;5776;51.814;4.510;2024-01-06T01:03:18;3.73;;;2.60;;
11439;SDS011;5776;51.814;4.510;2024-01-06T01:05:44;5.67;;;2.50;;
11439;SDS011;5776;51.814;4.510;2024-01-06T01:08:10;7.30;;;2.90;;
11439;SDS011;5776;51.814;4.510;2024-01-06T01:10:37;3.57;;;2.70;;
11439;SDS011;5776;51.814;4.510;2024-01-06T01:13:04;6.87;;;3.30;;
11439;SDS011;5776;51.814;4.510;2024-01-06T01:15:31;4.00;;;3.27;;
11439;SDS011;5776;51.814;4.510;2024-01-06T01:17:57;4.53;;;3.37;;
11439;SDS011;5776;51.814;4.510;2024-01-06T01:20:22;5.43;;;3.20;;
11439;SDS011;5776;51.814;4.510;2024-01-06T01:22:49;4.17;;;2.83;;
11439;SDS011;5776;51.814;4.510;2024-01-06T01:25:15;5.47;;;2.27;;
11439;SDS011;5776;51.814;4.510;2024-01-06T01:27:41;5.17;;;2.90;;
11439;SDS011;5776;51.814;4.510;2024-01-06T01:30:07;3.50;;;2.70;;
11439;SDS011;5776;51.814;4.510;2024-01-06T01:32:34;7.20;;;2.90;;
11439;SDS011;5776;51.814;4.510;2024-01-06T01:35:01;4.73;;;2.73;;
11439;SDS011;5776;51.814;4.510;2024-01-06T01:37:27;2.67;;;2.30;;
11439;SDS011;5776;51.814;4.510;2024-01-06T01:39:53;4.43;;;2.43;;
11439;SDS011;5776;51.814;4.510;2024-01-06T01:42:19;3.83;;;2.70;;
11439;SDS011;5776;51.814;4.510;2024-01-06T01:44:46;5.40;;;2.77;;
11439;SDS011;5776;51.814;4.510;2024-01-06T01:47:12;3.50;;;2.30;;
11439;SDS011;5776;51.814;4.510;2024-01-06T01:49:38;4.97;;;3.03;;
11439;SDS011;5776;51.814;4.510;2024-01-06T01:52:04;5.30;;;2.53;;
11439;SDS011;5776;51.814;4.510;2024-01-06T01:54:30;3.20;;;2.57;;
11439;SDS011;5776;51.814;4.510;2024-01-06T01:56:56;4.03;;;2.70;;
11439;SDS011;5776;51.814;4.510;2024-01-06T01:59:22;4.60;;;2.73;;
11439;SDS011;5776;51.814;4.510;2024-01-06T02:01:48;5.50;;;2.80;;
11439;SDS011;5776;51.814;4.510;2024-01-06T02:04:15;3.47;;;2.60;;
11439;SDS011;5776;51.814;4.510;2024-01-06T02:06:41;6.10;;;2.40;;
11439;SDS011;5776;51.814;4.510;2024-01-06T02:09:07;5.30;;;3.20;;
11439;SDS011;5776;51.814;4.510;2024-01-06T02:11:33;4.67;;;2.53;;
11439;SDS011;5776;51.814;4.510;2024-01-06T02:14:00;7.27;;;2.73;;
11439;SDS011;5776;51.814;4.510;2024-01-06T02:16:26;3.00;;;2.07;;
11439;SDS011;5776;51.814;4.510;2024-01-06T02:18:53;5.57;;;2.93;;
11439;SDS011;5776;51.814;4.510;2024-01-06T02:21:19;5.37;;;2.47;;
11439;SDS011;5776;51.814;4.510;2024-01-06T02:23:47;6.63;;;2.47;;
11439;SDS011;5776;51.814;4.510;2024-01-06T02:26:13;4.13;;;2.60;;
11439;SDS011;5776;51.814;4.510;2024-01-06T02:28:40;3.57;;;2.40;;
11439;SDS011;5776;51.814;4.510;2024-01-06T02:31:06;2.83;;;2.30;;
11439;SDS011;5776;51.814;4.510;2024-01-06T02:33:34;4.27;;;2.87;;
11439;SDS011;5776;51.814;4.510;2024-01-06T02:36:01;5.60;;;2.50;;
11439;SDS011;5776;51.814;4.510;2024-01-06T02:38:26;4.10;;;2.30;;
11439;SDS011;5776;51.814;4.510;2024-01-06T02:40:52;5.93;;;2.80;;
11439;SDS011;5776;51.814;4.510;2024-01-06T02:43:18;3.73;;;2.40;;
11439;SDS011;5776;51.814;4.510;2024-01-06T02:45:44;4.23;;;2.10;;
11439;SDS011;5776;51.814;4.510;2024-01-06T02:48:10;2.30;;;1.23;;
11439;SDS011;5776;51.814;4.510;2024-01-06T02:50:35;1.10;;;0.97;;
11439;SDS011;5776;51.814;4.510;2024-01-06T02:53:03;3.57;;;1.40;;
11439;SDS011;5776;51.814;4.510;2024-01-06T02:55:30;5.30;;;1.20;;
11439;SDS011;5776;51.814;4.510;2024-01-06T02:57:55;2.37;;;1.07;;
11439;SDS011;5776;51.814;4.510;2024-01-06T03:00:22;2.03;;;1.10;;
11439;SDS011;5776;51.814;4.510;2024-01-06T03:02:48;2.20;;;0.90;;
11439;SDS011;5776;51.814;4.510;2024-01-06T03:05:14;1.30;;;0.93;;
11439;SDS011;5776;51.814;4.510;2024-01-06T03:07:40;3.13;;;1.17;;
11439;SDS011;5776;51.814;4.510;2024-01-06T03:10:06;4.17;;;1.40;;
11439;SDS011;5776;51.814;4.510;2024-01-06T03:12:33;3.83;;;1.27;;
11439;SDS011;5776;51.814;4.510;2024-01-06T03:14:59;3.20;;;1.47;;
11439;SDS011;5776;51.814;4.510;2024-01-06T03:17:25;1.57;;;1.07;;
11439;SDS011;5776;51.814;4.510;2024-01-06T03:19:51;8.33;;;1.70;;
11439;SDS011;5776;51.814;4.510;2024-01-06T03:22:17;3.40;;;1.70;;
11439;SDS011;5776;51.814;4.510;2024-01-06T03:24:43;2.07;;;1.43;;
11439;SDS011;5776;51.814;4.510;2024-01-06T03:27:10;1.83;;;1.13;;
11439;SDS011;5776;51.814;4.510;2024-01-06T03:29:36;2.03;;;1.53;;
11439;SDS011;5776;51.814;4.510;2024-01-06T03:32:02;2.30;;;1.40;;
11439;SDS011;5776;51.814;4.510;2024-01-06T03:34:28;2.30;;;1.50;;
11439;SDS011;5776;51.814;4.510;2024-01-06T03:36:54;3.53;;;1.40;;
11439;SDS011;5776;51.814;4.510;2024-01-06T03:39:19;2.43;;;1.50;;
11439;SDS011;5776;51.814;4.510;2024-01-06T03:41:46;1.50;;;1.30;;
11439;SDS011;5776;51.814;4.510;2024-01-06T03:44:13;3.57;;;1.37;;
11439;SDS011;5776;51.814;4.510;2024-01-06T03:46:38;1.37;;;1.27;;
11439;SDS011;5776;51.814;4.510;2024-01-06T03:49:04;2.33;;;1.60;;
11439;SDS011;5776;51.814;4.510;2024-01-06T03:51:31;2.90;;;1.43;;
11439;SDS011;5776;51.814;4.510;2024-01-06T03:53:58;3.43;;;1.43;;
11439;SDS011;5776;51.814;4.510;2024-01-06T03:56:25;3.60;;;1.73;;
11439;SDS011;5776;51.814;4.510;2024-01-06T03:58:51;2.80;;;1.90;;
11439;SDS011;5776;51.814;4.510;2024-01-06T04:01:16;3.63;;;1.80;;
11439;SDS011;5776;51.814;4.510;2024-01-06T04:03:42;3.00;;;1.90;;
11439;SDS011;5776;51.814;4.510;2024-01-06T04:06:08;5.87;;;2.23;;
11439;SDS011;5776;51.814;4.510;2024-01-06T04:08:41;4.20;;;1.80;;
11439;SDS011;5776;51.814;4.510;2024-01-06T04:11:07;2.53;;;1.70;;
11439;SDS011;5776;51.814;4.510;2024-01-06T04:13:33;2.70;;;2.10;;
11439;SDS011;5776;51.814;4.510;2024-01-06T04:15:59;4.30;;;1.90;;
11439;SDS011;5776;51.814;4.510;2024-01-06T04:18:25;2.47;;;1.60;;
11439;SDS011;5776;51.814;4.510;2024-01-06T04:20:51;1.70;;;1.60;;
11439;SDS011;5776;51.814;4.510;2024-01-06T04:23:17;2.77;;;2.10;;
11439;SDS011;5776;51.814;4.510;2024-01-06T04:25:43;3.40;;;1.90;;
11439;SDS011;5776;51.814;4.510;2024-01-06T04:28:09;5.03;;;2.10;;
11439;SDS011;5776;51.814;4.510;2024-01-06T04:30:35;6.10;;;2.70;;
11439;SDS011;5776;51.814;4.510;2024-01-06T04:33:01;4.00;;;2.50;;
11439;SDS011;5776;51.814;4.510;2024-01-06T04:35:27;3.03;;;2.00;;
11439;SDS011;5776;51.814;4.510;2024-01-06T04:37:53;3.20;;;2.20;;
11439;SDS011;5776;51.814;4.510;2024-01-06T04:40:18;3.13;;;1.90;;
11439;SDS011;5776;51.814;4.510;2024-01-06T04:42:44;3.67;;;2.70;;
11439;SDS011;5776;51.814;4.510;2024-01-06T04:45:10;2.87;;;2.10;;
11439;SDS011;5776;51.814;4.510;2024-01-06T04:47:37;6.77;;;2.33;;
11439;SDS011;5776;51.814;4.510;2024-01-06T04:50:03;4.43;;;2.13;;
11439;SDS011;5776;51.814;4.510;2024-01-06T04:52:30;2.73;;;1.97;;
11439;SDS011;5776;51.814;4.510;2024-01-06T04:54:56;4.87;;;2.53;;
11439;SDS011;5776;51.814;4.510;2024-01-06T04:57:23;4.83;;;2.33;;
11439;SDS011;5776;51.814;4.510;2024-01-06T04:59:49;3.47;;;2.30;;
11439;SDS011;5776;51.814;4.510;2024-01-06T05:02:14;2.97;;;2.00;;
11439;SDS011;5776;51.814;4.510;2024-01-06T05:04:41;4.00;;;2.10;;
11439;SDS011;5776;51.814;4.510;2024-01-06T05:07:07;3.40;;;1.80;;
11439;SDS011;5776;51.814;4.510;2024-01-06T05:09:34;3.03;;;1.87;;
11439;SDS011;5776;51.814;4.510;2024-01-06T05:12:00;2.87;;;1.80;;
11439;SDS011;5776;51.814;4.510;2024-01-06T05:14:26;4.77;;;1.90;;
11439;SDS011;5776;51.814;4.510;2024-01-06T05:16:52;2.67;;;1.70;;
11439;SDS011;5776;51.814;4.510;2024-01-06T05:19:18;4.47;;;1.97;;
11439;SDS011;5776;51.814;4.510;2024-01-06T05:21:47;3.50;;;2.00;;
11439;SDS011;5776;51.814;4.510;2024-01-06T05:24:13;4.40;;;1.87;;
11439;SDS011;5776;51.814;4.510;2024-01-06T05:26:40;2.07;;;1.70;;
11439;SDS011;5776;51.814;4.510;2024-01-06T05:29:07;2.53;;;1.90;;
11439;SDS011;5776;51.814;4.510;2024-01-06T05:31:33;4.63;;;2.40;;
11439;SDS011;5776;51.814;4.510;2024-01-06T05:34:00;5.10;;;2.00;;
11439;SDS011;5776;51.814;4.510;2024-01-06T05:36:26;2.47;;;1.80;;
11439;SDS011;5776;51.814;4.510;2024-01-06T05:38:52;3.10;;;2.13;;
11439;SDS011;5776;51.814;4.510;2024-01-06T05:41:19;2.47;;;2.10;;
11439;SDS011;5776;51.814;4.510;2024-01-06T05:43:45;4.00;;;2.00;;
11439;SDS011;5776;51.814;4.510;2024-01-06T05:46:20;2.93;;;1.77;;
11439;SDS011;5776;51.814;4.510;2024-01-06T05:48:52;3.43;;;2.00;;
11439;SDS011;5776;51.814;4.510;2024-01-06T05:51:19;2.20;;;1.63;;
11439;SDS011;5776;51.814;4.510;2024-01-06T05:53:45;2.70;;;2.00;;
11439;SDS011;5776;51.814;4.510;2024-01-06T05:56:11;6.77;;;2.13;;
11439;SDS011;5776;51.814;4.510;2024-01-06T05:58:36;3.47;;;2.10;;
11439;SDS011;5776;51.814;4.510;2024-01-06T06:01:02;2.63;;;1.60;;
11439;SDS011;5776;51.814;4.510;2024-01-06T06:03:28;3.80;;;1.77;;
11439;SDS011;5776;51.814;4.510;2024-01-06T06:05:54;3.10;;;1.60;;
11439;SDS011;5776;51.814;4.510;2024-01-06T06:08:20;3.53;;;1.23;;
11439;SDS011;5776;51.814;4.510;2024-01-06T06:10:46;1.80;;;1.43;;
11439;SDS011;5776;51.814;4.510;2024-01-06T06:13:31;2.00;;;1.20;;
11439;SDS011;5776;51.814;4.510;2024-01-06T06:15:57;2.27;;;1.20;;
11439;SDS011;5776;51.814;4.510;2024-01-06T06:18:23;4.10;;;1.60;;
11439;SDS011;5776;51.814;4.510;2024-01-06T06:20:49;2.47;;;1.30;;
11439;SDS011;5776;51.814;4.510;2024-01-06T06:23:15;1.67;;;1.00;;
11439;SDS011;5776;51.814;4.510;2024-01-06T06:25:42;4.40;;;1.17;;
11439;SDS011;5776;51.814;4.510;2024-01-06T06:28:09;1.87;;;1.20;;
11439;SDS011;5776;51.814;4.510;2024-01-06T06:30:35;2.90;;;1.33;;
11439;SDS011;5776;51.814;4.510;2024-01-06T06:33:01;3.03;;;1.53;;
11439;SDS011;5776;51.814;4.510;2024-01-06T06:35:27;1.30;;;1.10;;
11439;SDS011;5776;51.814;4.510;2024-01-06T06:37:52;2.27;;;1.30;;
11439;SDS011;5776;51.814;4.510;2024-01-06T06:40:18;2.83;;;1.33;;
11439;SDS011;5776;51.814;4.510;2024-01-06T06:42:45;5.40;;;1.57;;
11439;SDS011;5776;51.814;4.510;2024-01-06T06:45:11;1.43;;;1.03;;
11439;SDS011;5776;51.814;4.510;2024-01-06T06:47:37;2.43;;;1.50;;
11439;SDS011;5776;51.814;4.510;2024-01-06T06:50:03;4.37;;;2.20;;
11439;SDS011;5776;51.814;4.510;2024-01-06T06:52:29;2.20;;;1.30;;
11439;SDS011;5776;51.814;4.510;2024-01-06T06:54:55;2.23;;;1.50;;
11439;SDS011;5776;51.814;4.510;2024-01-06T06:57:21;2.57;;;1.53;;
11439;SDS011;5776;51.814;4.510;2024-01-06T06:59:47;1.93;;;1.40;;
11439;SDS011;5776;51.814;4.510;2024-01-06T07:02:13;2.20;;;1.90;;
11439;SDS011;5776;51.814;4.510;2024-01-06T07:04:39;4.80;;;2.20;;
11439;SDS011;5776;51.814;4.510;2024-01-06T07:07:05;6.13;;;1.87;;
11439;SDS011;5776;51.814;4.510;2024-01-06T07:09:31;3.50;;;1.63;;
11439;SDS011;5776;51.814;4.510;2024-01-06T07:11:58;5.13;;;1.80;;
11439;SDS011;5776;51.814;4.510;2024-01-06T07:14:24;4.27;;;1.70;;
11439;SDS011;5776;51.814;4.510;2024-01-06T07:16:49;1.83;;;1.43;;
11439;SDS011;5776;51.814;4.510;2024-01-06T07:19:15;4.87;;;1.50;;
11439;SDS011;5776;51.814;4.510;2024-01-06T07:21:41;4.03;;;1.70;;
11439;SDS011;5776;51.814;4.510;2024-01-06T07:24:07;12.43;;;1.97;;
11439;SDS011;5776;51.814;4.510;2024-01-06T07:26:33;2.53;;;1.60;;
11439;SDS011;5776;51.814;4.510;2024-01-06T07:28:59;1.83;;;1.53;;
11439;SDS011;5776;51.814;4.510;2024-01-06T07:31:25;3.27;;;1.57;;
11439;SDS011;5776;51.814;4.510;2024-01-06T07:33:50;3.90;;;2.23;;
11439;SDS011;5776;51.814;4.510;2024-01-06T07:36:17;2.97;;;1.60;;
11439;SDS011;5776;51.814;4.510;2024-01-06T07:38:44;5.07;;;1.70;;
11439;SDS011;5776;51.814;4.510;2024-01-06T07:41:11;3.63;;;1.60;;
11439;SDS011;5776;51.814;4.510;2024-01-06T07:43:38;1.83;;;1.00;;
11439;SDS011;5776;51.814;4.510;2024-01-06T07:46:04;1.67;;;1.40;;
11439;SDS011;5776;51.814;4.510;2024-01-06T07:48:32;2.27;;;1.30;;
11439;SDS011;5776;51.814;4.510;2024-01-06T07:50:58;2.37;;;1.50;;
11439;SDS011;5776;51.814;4.510;2024-01-06T07:53:24;2.30;;;1.40;;
11439;SDS011;5776;51.814;4.510;2024-01-06T07:55:50;3.17;;;1.70;;
11439;SDS011;5776;51.814;4.510;2024-01-06T07:58:16;4.40;;;1.27;;
11439;SDS011;5776;51.814;4.510;2024-01-06T08:00:42;3.10;;;1.80;;
11439;SDS011;5776;51.814;4.510;2024-01-06T08:03:08;2.10;;;1.40;;
11439;SDS011;5776;51.814;4.510;2024-01-06T08:05:34;3.80;;;2.20;;
11439;SDS011;5776;51.814;4.510;2024-01-06T08:08:00;2.00;;;1.57;;
11439;SDS011;5776;51.814;4.510;2024-01-06T08:10:26;1.73;;;1.60;;
11439;SDS011;5776;51.814;4.510;2024-01-06T08:12:52;3.40;;;2.10;;
11439;SDS011;5776;51.814;4.510;2024-01-06T08:15:19;3.03;;;1.70;;
11439;SDS011;5776;51.814;4.510;2024-01-06T08:17:45;3.10;;;1.60;;
11439;SDS011;5776;51.814;4.510;2024-01-06T08:20:12;2.10;;;1.67;;
11439;SDS011;5776;51.814;4.510;2024-01-06T08:22:38;4.50;;;2.07;;
11439;SDS011;5776;51.814;4.510;2024-01-06T08:25:04;3.13;;;1.90;;
11439;SDS011;5776;51.814;4.510;2024-01-06T08:27:32;6.60;;;1.90;;
11439;SDS011;5776;51.814;4.510;2024-01-06T08:29:58;2.30;;;1.77;;
11439;SDS011;5776;51.814;4.510;2024-01-06T08:32:24;4.03;;;2.60;;
11439;SDS011;5776;51.814;4.510;2024-01-06T08:34:52;5.33;;;2.50;;
11439;SDS011;5776;51.814;4.510;2024-01-06T08:37:17;3.83;;;2.20;;
11439;SDS011;5776;51.814;4.510;2024-01-06T08:39:43;3.77;;;2.30;;
11439;SDS011;5776;51.814;4.510;2024-01-06T08:42:08;2.47;;;1.90;;
11439;SDS011;5776;51.814;4.510;2024-01-06T08:44:34;2.83;;;1.70;;
11439;SDS011;5776;51.814;4.510;2024-01-06T08:47:00;2.47;;;1.53;;
11439;SDS011;5776;51.814;4.510;2024-01-06T08:49:27;3.13;;;2.03;;
11439;SDS011;5776;51.814;4.510;2024-01-06T08:51:53;3.27;;;2.10;;
11439;SDS011;5776;51.814;4.510;2024-01-06T08:54:19;2.00;;;1.30;;
11439;SDS011;5776;51.814;4.510;2024-01-06T08:56:45;3.63;;;2.10;;
11439;SDS011;5776;51.814;4.510;2024-01-06T08:59:11;2.70;;;2.00;;
11439;SDS011;5776;51.814;4.510;2024-01-06T09:01:38;1.90;;;1.70;;
11439;SDS011;5776;51.814;4.510;2024-01-06T09:04:04;3.30;;;2.20;;
11439;SDS011;5776;51.814;4.510;2024-01-06T09:06:32;5.83;;;2.10;;
11439;SDS011;5776;51.814;4.510;2024-01-06T09:08:57;2.80;;;2.00;;
11439;SDS011;5776;51.814;4.510;2024-01-06T09:11:23;4.73;;;2.40;;
11439;SDS011;5776;51.814;4.510;2024-01-06T09:13:49;2.37;;;2.17;;
11439;SDS011;5776;51.814;4.510;2024-01-06T09:16:18;4.53;;;2.50;;
11439;SDS011;5776;51.814;4.510;2024-01-06T09:18:44;4.10;;;2.37;;
11439;SDS011;5776;51.814;4.510;2024-01-06T09:21:10;9.53;;;4.20;;
11439;SDS011;5776;51.814;4.510;2024-01-06T09:23:36;3.90;;;2.40;;
11439;SDS011;5776;51.814;4.510;2024-01-06T09:26:02;5.43;;;3.00;;
11439;SDS011;5776;51.814;4.510;2024-01-06T09:28:28;3.83;;;2.20;;
11439;SDS011;5776;51.814;4.510;2024-01-06T09:30:54;3.17;;;2.23;;
11439;SDS011;5776;51.814;4.510;2024-01-06T09:33:22;3.50;;;2.30;;
11439;SDS011;5776;51.814;4.510;2024-01-06T09:35:48;5.20;;;2.70;;
11439;SDS011;5776;51.814;4.510;2024-01-06T09:38:14;8.40;;;4.53;;
11439;SDS011;5776;51.814;4.510;2024-01-06T09:40:41;4.73;;;2.37;;
11439;SDS011;5776;51.814;4.510;2024-01-06T09:43:09;2.80;;;2.20;;
11439;SDS011;5776;51.814;4.510;2024-01-06T09:45:35;11.53;;;5.70;;
11439;SDS011;5776;51.814;4.510;2024-01-06T09:48:03;2.40;;;2.00;;
11439;SDS011;5776;51.814;4.510;2024-01-06T09:50:35;4.90;;;3.57;;
11439;SDS011;5776;51.814;4.510;2024-01-06T09:53:01;2.77;;;2.00;;
11439;SDS011;5776;51.814;4.510;2024-01-06T09:55:31;3.00;;;1.80;;
11439;SDS011;5776;51.814;4.510;2024-01-06T09:58:01;3.70;;;2.63;;
11439;SDS011;5776;51.814;4.510;2024-01-06T10:00:28;1.97;;;1.50;;
11439;SDS011;5776;51.814;4.510;2024-01-06T10:02:54;3.93;;;2.03;;
11439;SDS011;5776;51.814;4.510;2024-01-06T10:05:20;3.53;;;2.13;;
11439;SDS011;5776;51.814;4.510;2024-01-06T10:07:47;1.50;;;1.40;;
11439;SDS011;5776;51.814;4.510;2024-01-06T10:10:13;3.40;;;1.40;;
11439;SDS011;5776;51.814;4.510;2024-01-06T10:12:40;4.97;;;2.43;;
11439;SDS011;5776;51.814;4.510;2024-01-06T10:15:08;2.67;;;1.90;;
11439;SDS011;5776;51.814;4.510;2024-01-06T10:17:38;1.73;;;1.50;;
11439;SDS011;5776;51.814;4.510;2024-01-06T10:20:08;3.90;;;1.60;;
11439;SDS011;5776;51.814;4.510;2024-01-06T10:22:36;3.83;;;2.20;;
11439;SDS011;5776;51.814;4.510;2024-01-06T10:25:05;2.37;;;1.43;;
11439;SDS011;5776;51.814;4.510;2024-01-06T10:27:42;3.17;;;1.60;;
11439;SDS011;5776;51.814;4.510;2024-01-06T10:30:08;2.00;;;1.40;;
11439;SDS011;5776;51.814;4.510;2024-01-06T10:32:35;3.17;;;1.67;;
11439;SDS011;5776;51.814;4.510;2024-01-06T10:35:02;2.07;;;1.77;;
11439;SDS011;5776;51.814;4.510;2024-01-06T10:37:31;2.00;;;1.80;;
11439;SDS011;5776;51.814;4.510;2024-01-06T10:42:35;7.83;;;1.97;;
11439;SDS011;5776;51.814;4.510;2024-01-06T10:45:02;2.73;;;1.63;;
11439;SDS011;5776;51.814;4.510;2024-01-06T10:47:30;2.27;;;1.60;;
11439;SDS011;5776;51.814;4.510;2024-01-06T10:49:58;2.60;;;1.50;;
11439;SDS011;5776;51.814;4.510;2024-01-06T10:52:29;1.80;;;1.43;;
11439;SDS011;5776;51.814;4.510;2024-01-06T10:54:54;3.27;;;1.77;;
11439;SDS011;5776;51.814;4.510;2024-01-06T10:57:21;2.80;;;1.80;;
11439;SDS011;5776;51.814;4.510;2024-01-06T10:59:49;2.50;;;1.80;;
11439;SDS011;5776;51.814;4.510;2024-01-06T11:02:16;4.60;;;1.50;;
11439;SDS011;5776;51.814;4.510;2024-01-06T11:04:43;2.67;;;1.87;;
11439;SDS011;5776;51.814;4.510;2024-01-06T11:07:13;4.73;;;1.90;;
11439;SDS011;5776;51.814;4.510;2024-01-06T11:09:44;3.50;;;1.80;;
11439;SDS011;5776;51.814;4.510;2024-01-06T11:12:18;2.67;;;1.50;;
11439;SDS011;5776;51.814;4.510;2024-01-06T11:14:44;1.87;;;1.47;;
11439;SDS011;5776;51.814;4.510;2024-01-06T11:17:11;2.57;;;1.60;;
11439;SDS011;5776;51.814;4.510;2024-01-06T11:22:19;2.97;;;2.13;;
11439;SDS011;5776;51.814;4.510;2024-01-06T11:25:03;5.43;;;2.10;;
11439;SDS011;5776;51.814;4.510;2024-01-06T11:27:31;4.57;;;1.90;;
11439;SDS011;5776;51.814;4.510;2024-01-06T11:29:57;2.37;;;1.70;;
11439;SDS011;5776;51.814;4.510;2024-01-06T11:35:10;4.43;;;2.40;;
11439;SDS011;5776;51.814;4.510;2024-01-06T11:40:10;2.73;;;1.40;;
11439;SDS011;5776;51.814;4.510;2024-01-06T11:43:09;2.40;;;1.67;;
11439;SDS011;5776;51.814;4.510;2024-01-06T11:45:38;3.30;;;1.50;;
11439;SDS011;5776;51.814;4.510;2024-01-06T11:48:10;2.40;;;1.43;;
11439;SDS011;5776;51.814;4.510;2024-01-06T11:50:38;2.10;;;1.40;;
11439;SDS011;5776;51.814;4.510;2024-01-06T11:53:05;2.07;;;1.37;;
11439;SDS011;5776;51.814;4.510;2024-01-06T11:55:33;1.80;;;1.43;;
11439;SDS011;5776;51.814;4.510;2024-01-06T11:58:00;3.63;;;1.80;;
11439;SDS011;5776;51.814;4.510;2024-01-06T12:00:31;9.00;;;7.87;;
11439;SDS011;5776;51.814;4.510;2024-01-06T12:02:58;4.70;;;3.23;;
11439;SDS011;5776;51.814;4.510;2024-01-06T12:05:25;3.77;;;2.00;;
11439;SDS011;5776;51.814;4.510;2024-01-06T12:10:26;2.87;;;1.90;;
11439;SDS011;5776;51.814;4.510;2024-01-06T12:12:57;3.20;;;1.70;;
11439;SDS011;5776;51.814;4.510;2024-01-06T12:15:35;4.33;;;1.97;;
11439;SDS011;5776;51.814;4.510;2024-01-06T12:18:04;3.53;;;2.30;;
11439;SDS011;5776;51.814;4.510;2024-01-06T12:20:32;3.03;;;2.10;;
11439;SDS011;5776;51.814;4.510;2024-01-06T12:22:58;4.13;;;2.20;;
11439;SDS011;5776;51.814;4.510;2024-01-06T12:25:26;2.27;;;1.80;;
11439;SDS011;5776;51.814;4.510;2024-01-06T12:27:54;4.27;;;1.57;;
11439;SDS011;5776;51.814;4.510;2024-01-06T12:30:21;2.63;;;1.67;;
11439;SDS011;5776;51.814;4.510;2024-01-06T12:32:48;4.23;;;1.70;;
11439;SDS011;5776;51.814;4.510;2024-01-06T12:35:15;2.57;;;1.73;;
11439;SDS011;5776;51.814;4.510;2024-01-06T12:37:42;3.37;;;1.87;;
11439;SDS011;5776;51.814;4.510;2024-01-06T12:40:09;4.20;;;1.70;;
11439;SDS011;5776;51.814;4.510;2024-01-06T12:42:36;3.20;;;1.70;;
11439;SDS011;5776;51.814;4.510;2024-01-06T12:45:02;2.87;;;1.60;;
11439;SDS011;5776;51.814;4.510;2024-01-06T12:47:28;4.27;;;1.90;;
11439;SDS011;5776;51.814;4.510;2024-01-06T12:49:54;5.13;;;3.23;;
11439;SDS011;5776;51.814;4.510;2024-01-06T12:52:21;2.23;;;1.57;;
11439;SDS011;5776;51.814;4.510;2024-01-06T12:54:47;2.90;;;2.13;;
11439;SDS011;5776;51.814;4.510;2024-01-06T12:57:13;1.77;;;1.43;;
11439;SDS011;5776;51.814;4.510;2024-01-06T12:59:39;3.30;;;1.87;;
11439;SDS011;5776;51.814;4.510;2024-01-06T13:02:05;5.57;;;3.17;;
11439;SDS011;5776;51.814;4.510;2024-01-06T13:04:31;4.53;;;1.57;;
11439;SDS011;5776;51.814;4.510;2024-01-06T13:06:57;1.77;;;1.40;;
11439;SDS011;5776;51.814;4.510;2024-01-06T13:09:22;2.73;;;1.40;;
11439;SDS011;5776;51.814;4.510;2024-01-06T13:11:49;4.20;;;1.70;;
11439;SDS011;5776;51.814;4.510;2024-01-06T13:14:16;1.73;;;1.30;;
11439;SDS011;5776;51.814;4.510;2024-01-06T13:16:43;2.53;;;1.37;;
11439;SDS011;5776;51.814;4.510;2024-01-06T13:19:09;2.37;;;1.37;;
11439;SDS011;5776;51.814;4.510;2024-01-06T13:21:35;1.73;;;1.00;;
11439;SDS011;5776;51.814;4.510;2024-01-06T13:24:06;2.70;;;1.30;;
11439;SDS011;5776;51.814;4.510;2024-01-06T13:26:32;1.83;;;1.20;;
11439;SDS011;5776;51.814;4.510;2024-01-06T13:28:58;3.00;;;1.30;;
11439;SDS011;5776;51.814;4.510;2024-01-06T13:31:25;2.03;;;1.10;;
11439;SDS011;5776;51.814;4.510;2024-01-06T13:33:52;3.33;;;1.30;;
11439;SDS011;5776;51.814;4.510;2024-01-06T13:36:17;1.43;;;1.30;;
11439;SDS011;5776;51.814;4.510;2024-01-06T13:38:45;2.63;;;1.27;;
11439;SDS011;5776;51.814;4.510;2024-01-06T13:41:11;2.90;;;1.50;;
11439;SDS011;5776;51.814;4.510;2024-01-06T13:43:38;1.40;;;1.30;;
11439;SDS011;5776;51.814;4.510;2024-01-06T13:46:03;2.40;;;1.70;;
11439;SDS011;5776;51.814;4.510;2024-01-06T13:48:29;1.27;;;1.13;;
11439;SDS011;5776;51.814;4.510;2024-01-06T13:50:55;1.83;;;1.23;;
11439;SDS011;5776;51.814;4.510;2024-01-06T13:53:22;4.03;;;1.47;;
11439;SDS011;5776;51.814;4.510;2024-01-06T13:55:48;2.20;;;1.30;;
11439;SDS011;5776;51.814;4.510;2024-01-06T13:58:14;4.90;;;1.20;;
11439;SDS011;5776;51.814;4.510;2024-01-06T14:00:40;3.43;;;2.20;;
11439;SDS011;5776;51.814;4.510;2024-01-06T14:03:05;1.43;;;1.33;;
11439;SDS011;5776;51.814;4.510;2024-01-06T14:05:32;5.47;;;1.07;;
11439;SDS011;5776;51.814;4.510;2024-01-06T14:08:00;2.37;;;1.10;;
11439;SDS011;5776;51.814;4.510;2024-01-06T14:10:27;1.73;;;1.30;;
11439;SDS011;5776;51.814;4.510;2024-01-06T14:12:53;2.53;;;1.30;;
11439;SDS011;5776;51.814;4.510;2024-01-06T14:15:19;2.67;;;1.10;;
11439;SDS011;5776;51.814;4.510;2024-01-06T14:17:45;2.53;;;1.20;;
11439;SDS011;5776;51.814;4.510;2024-01-06T14:20:15;1.57;;;1.03;;
11439;SDS011;5776;51.814;4.510;2024-01-06T14:22:44;1.60;;;1.30;;
11439;SDS011;5776;51.814;4.510;2024-01-06T14:25:11;1.77;;;1.00;;
11439;SDS011;5776;51.814;4.510;2024-01-06T14:27:38;1.10;;;0.90;;
11439;SDS011;5776;51.814;4.510;2024-01-06T14:30:05;2.87;;;1.20;;
11439;SDS011;5776;51.814;4.510;2024-01-06T14:32:38;3.33;;;1.10;;
11439;SDS011;5776;51.814;4.510;2024-01-06T14:35:04;2.90;;;1.10;;
11439;SDS011;5776;51.814;4.510;2024-01-06T14:37:32;2.00;;;1.20;;
11439;SDS011;5776;51.814;4.510;2024-01-06T14:39:59;4.30;;;1.90;;
11439;SDS011;5776;51.814;4.510;2024-01-06T14:42:30;2.57;;;1.63;;
11439;SDS011;5776;51.814;4.510;2024-01-06T14:44:58;4.07;;;1.40;;
11439;SDS011;5776;51.814;4.510;2024-01-06T14:47:25;2.13;;;1.20;;
11439;SDS011;5776;51.814;4.510;2024-01-06T14:49:51;2.17;;;1.50;;
11439;SDS011;5776;51.814;4.510;2024-01-06T14:52:17;2.60;;;1.27;;
11439;SDS011;5776;51.814;4.510;2024-01-06T14:54:43;3.10;;;1.60;;
11439;SDS011;5776;51.814;4.510;2024-01-06T14:57:10;4.07;;;1.60;;
11439;SDS011;5776;51.814;4.510;2024-01-06T14:59:35;2.37;;;1.57;;
11439;SDS011;5776;51.814;4.510;2024-01-06T15:02:03;2.33;;;1.70;;
11439;SDS011;5776;51.814;4.510;2024-01-06T15:04:31;4.13;;;1.60;;
11439;SDS011;5776;51.814;4.510;2024-01-06T15:06:57;3.30;;;1.60;;
11439;SDS011;5776;51.814;4.510;2024-01-06T15:09:22;3.70;;;2.03;;
11439;SDS011;5776;51.814;4.510;2024-01-06T15:11:50;2.37;;;1.40;;